Time;durP1;ratioP1;P1;durP2;ratioP2;P2;SDS_P1;SDS_P2;PMS_P1;PMS_P2;Temp;Humidity;BMP_temperature;BMP_pressure;BME280_temperature;BME280_humidity;BME280_pressure;Samples;Min_cycle;Max_cycle;Signal;HPM_P1;HPM_P2
2021/07/09 00:02:52;;;;;;;6.65;3.00;;;;;;;17.26;100.00;100810.72;4993090;28;20511;-70
2021/07/09 00:05:36;;;;;;;3.75;3.33;;;;;;;17.27;100.00;100807.00;4993258;28;20093;-70
2021/07/09 00:08:20;;;;;;;5.28;3.45;;;;;;;17.25;100.00;100803.66;4994547;28;20049;-71
2021/07/09 00:11:04;;;;;;;7.78;3.30;;;;;;;17.24;100.00;100796.59;4993503;28;20101;-70
2021/07/09 00:13:48;;;;;;;6.30;3.50;;;;;;;17.24;100.00;100803.81;4993118;28;20057;-71
2021/07/09 00:16:32;;;;;;;8.02;3.35;;;;;;;17.24;100.00;100801.97;4993135;28;20479;-71
2021/07/09 00:19:16;;;;;;;8.20;3.22;;;;;;;17.23;100.00;100800.31;4979631;28;20049;-71
2021/07/09 00:22:00;;;;;;;5.50;3.10;;;;;;;17.21;100.00;100790.72;4993604;28;20092;-71
2021/07/09 00:24:45;;;;;;;6.88;3.50;;;;;;;17.22;100.00;100790.53;4979337;28;20053;-71
2021/07/09 00:27:29;;;;;;;4.55;3.35;;;;;;;17.22;100.00;100787.00;4993319;28;20554;-70
2021/07/09 00:30:13;;;;;;;10.10;3.50;;;;;;;17.17;100.00;100782.13;4993204;28;20133;-71
2021/07/09 00:32:57;;;;;;;6.57;2.97;;;;;;;17.17;100.00;100784.81;4993321;28;20044;-70
2021/07/09 00:35:41;;;;;;;9.60;3.30;;;;;;;17.19;100.00;100780.09;4979441;28;20053;-70
2021/07/09 00:38:25;;;;;;;4.63;3.22;;;;;;;17.15;100.00;100784.16;4993795;28;20054;-68
2021/07/09 00:41:10;;;;;;;6.35;3.03;;;;;;;17.14;100.00;100782.47;4993087;28;20546;-71
2021/07/09 00:43:54;;;;;;;9.02;3.17;;;;;;;17.15;100.00;100784.16;4979407;28;20045;-70
2021/07/09 00:46:40;;;;;;;11.73;3.25;;;;;;;17.08;100.00;100777.78;4993116;28;20048;-71
2021/07/09 00:49:24;;;;;;;3.60;2.90;;;;;;;17.14;100.00;100776.25;4992696;28;20093;-71
2021/07/09 00:52:07;;;;;;;7.13;3.75;;;;;;;17.13;100.00;100777.25;4993201;28;20089;-70
2021/07/09 00:54:52;;;;;;;5.10;3.15;;;;;;;17.13;100.00;100779.94;4993960;28;20093;-71
2021/07/09 00:57:39;;;;;;;3.97;3.20;;;;;;;17.11;100.00;100779.28;4992727;28;20050;-70
2021/07/09 01:00:23;;;;;;;4.70;3.13;;;;;;;17.12;100.00;100775.59;4979142;28;20068;-71
2021/07/09 01:03:07;;;;;;;4.90;3.20;;;;;;;17.09;100.00;100782.16;4992705;28;20061;-71
2021/07/09 01:05:51;;;;;;;4.25;2.97;;;;;;;17.05;100.00;100782.66;4993043;28;20120;-71
2021/07/09 01:08:35;;;;;;;4.40;3.25;;;;;;;17.07;100.00;100786.03;4992813;28;20046;-71
2021/07/09 01:11:20;;;;;;;3.67;3.28;;;;;;;17.04;100.00;100789.06;4993526;28;20050;-70
2021/07/09 01:14:07;;;;;;;4.07;2.90;;;;;;;17.07;100.00;100788.72;4993376;28;20142;-71
2021/07/09 01:16:51;;;;;;;3.97;3.15;;;;;;;17.06;100.00;100787.91;4996645;28;20129;-71
2021/07/09 01:19:35;;;;;;;3.45;3.15;;;;;;;17.07;100.00;100789.56;4996346;28;20511;-71
2021/07/09 01:22:19;;;;;;;5.13;3.20;;;;;;;17.06;100.00;100793.28;4996379;28;20053;-71
2021/07/09 01:25:39;;;;;;;4.43;2.72;;;;;;;17.13;100.00;100799.66;4996550;28;20107;-70
2021/07/09 01:28:23;;;;;;;5.45;3.30;;;;;;;17.13;100.00;100788.88;4981088;28;20097;-71
2021/07/09 01:31:08;;;;;;;5.22;3.03;;;;;;;17.14;100.00;100790.56;4996133;28;20057;-71
2021/07/09 01:33:51;;;;;;;6.32;3.00;;;;;;;17.21;100.00;100796.09;4996124;28;20060;-70
2021/07/09 01:36:35;;;;;;;5.15;2.83;;;;;;;17.14;100.00;100801.34;4996071;28;20139;-71
2021/07/09 01:39:19;;;;;;;6.30;2.80;;;;;;;17.16;100.00;100798.47;4996273;28;20045;-71
2021/07/09 01:42:03;;;;;;;6.70;2.80;;;;;;;17.20;100.00;100795.25;4996278;28;20162;-71
2021/07/09 01:44:47;;;;;;;4.65;3.08;;;;;;;17.17;100.00;100810.91;4996179;28;20092;-70
2021/07/09 01:47:31;;;;;;;7.47;3.08;;;;;;;17.17;100.00;100800.13;4996101;28;20065;-70
2021/07/09 01:50:16;;;;;;;6.78;2.90;;;;;;;17.18;100.00;100801.84;4982474;28;20053;-67
2021/07/09 01:53:01;;;;;;;10.20;3.22;;;;;;;17.16;100.00;100810.09;4996816;28;20053;-70
2021/07/09 01:55:45;;;;;;;5.50;3.40;;;;;;;17.10;100.00;100808.06;4982509;28;20149;-71
2021/07/09 01:58:29;;;;;;;4.88;2.70;;;;;;;17.11;100.00;100807.06;4995558;28;20120;-70
2021/07/09 02:01:13;;;;;;;3.33;2.72;;;;;;;17.09;100.00;100795.63;4996887;28;20053;-71
2021/07/09 02:03:57;;;;;;;4.65;2.90;;;;;;;17.07;100.00;100799.50;4995962;28;20068;-70
2021/07/09 02:06:40;;;;;;;11.85;3.53;;;;;;;17.10;100.00;100789.22;4968229;28;20502;-70
2021/07/09 02:09:24;;;;;;;6.05;3.20;;;;;;;17.05;100.00;100790.75;4996483;28;20045;-70
2021/07/09 02:12:09;;;;;;;4.85;3.00;;;;;;;17.02;100.00;100794.66;4995896;28;20088;-70
2021/07/09 02:14:53;;;;;;;5.07;3.15;;;;;;;17.02;100.00;100786.56;4995357;28;20052;-70
2021/07/09 02:17:38;;;;;;;5.30;2.88;;;;;;;16.94;100.00;100794.66;4995538;28;20172;-70
2021/07/09 02:20:24;;;;;;;7.40;3.15;;;;;;;16.99;100.00;100791.47;4995531;28;20053;-71
2021/07/09 02:23:12;;;;;;;4.80;3.33;;;;;;;16.97;100.00;100793.50;4981704;28;20081;-71
2021/07/09 02:25:56;;;;;;;4.78;3.28;;;;;;;16.96;100.00;100787.25;4981113;28;20072;-70
2021/07/09 02:28:40;;;;;;;6.65;3.35;;;;;;;16.95;100.00;100790.97;4995103;28;20042;-71
2021/07/09 02:31:24;;;;;;;9.02;2.90;;;;;;;17.00;100.00;100793.97;4996033;28;20057;-70
2021/07/09 02:34:08;;;;;;;5.43;3.40;;;;;;;17.01;100.00;100790.25;4996200;28;20428;-70
2021/07/09 02:36:52;;;;;;;8.38;3.15;;;;;;;16.95;100.00;100792.78;4996138;28;20069;-70
2021/07/09 02:39:37;;;;;;;7.30;2.95;;;;;;;16.93;100.00;100793.00;4994940;28;20049;-71
2021/07/09 02:42:21;;;;;;;3.63;3.00;;;;;;;16.92;100.00;100801.22;4994866;28;20511;-70
2021/07/09 02:45:06;;;;;;;4.93;2.90;;;;;;;16.91;100.00;100804.94;4996033;28;20048;-70
2021/07/09 02:47:50;;;;;;;3.97;3.00;;;;;;;16.93;100.00;100806.44;4981338;28;20049;-71
2021/07/09 02:50:34;;;;;;;10.23;3.28;;;;;;;16.89;100.00;100802.41;4981169;28;20053;-70
2021/07/09 02:53:18;;;;;;;5.45;2.80;;;;;;;16.88;100.00;100814.19;5028707;22;20080;-66
2021/07/09 02:56:02;;;;;;;5.88;3.38;;;;;;;16.85;100.00;100811.84;5035242;28;20100;-66
2021/07/09 02:58:46;;;;;;;6.30;3.03;;;;;;;16.80;100.00;100814.19;5006218;28;20144;-66
2021/07/09 03:01:30;;;;;;;7.32;2.92;;;;;;;16.78;100.00;100810.84;5019871;28;20048;-66
2021/07/09 03:04:14;;;;;;;5.28;3.20;;;;;;;16.73;100.00;100806.97;5006055;28;20080;-66
2021/07/09 03:06:58;;;;;;;7.97;3.33;;;;;;;16.74;100.00;100809.50;4986793;28;20072;-66
2021/07/09 03:09:42;;;;;;;5.10;3.80;;;;;;;16.67;100.00;100807.69;5000371;28;20095;-66
2021/07/09 03:12:26;;;;;;;4.57;3.10;;;;;;;16.62;100.00;100810.03;4986568;28;20068;-66
2021/07/09 03:15:11;;;;;;;12.30;3.85;;;;;;;16.61;100.00;100819.13;5000210;28;20535;-65
2021/07/09 03:17:55;;;;;;;6.47;3.17;;;;;;;16.61;100.00;100811.03;4986338;28;20057;-66
2021/07/09 03:20:39;;;;;;;8.63;3.67;;;;;;;16.56;100.00;100811.53;5015004;28;20176;-66
2021/07/09 03:23:23;;;;;;;7.57;3.78;;;;;;;16.53;100.00;100817.28;5014839;28;20053;-66
2021/07/09 03:26:07;;;;;;;5.03;3.10;;;;;;;16.46;100.00;100815.44;4999784;28;20056;-66
2021/07/09 03:28:57;;;;;;;6.50;3.33;;;;;;;16.51;100.00;100813.91;5014860;28;20553;-66
2021/07/09 03:31:41;;;;;;;8.95;3.42;;;;;;;16.51;100.00;100823.81;5000846;28;20100;-66
2021/07/09 03:34:25;;;;;;;5.53;3.50;;;;;;;16.51;100.00;100822.00;4986145;28;20048;-66
2021/07/09 03:37:09;;;;;;;6.38;3.90;;;;;;;16.51;100.00;100832.75;4999285;28;20156;-66
2021/07/09 03:39:53;;;;;;;4.82;3.30;;;;;;;16.47;100.00;100835.97;4999697;28;20554;-66
2021/07/09 03:42:37;;;;;;;5.68;3.45;;;;;;;16.51;100.00;100838.16;4999624;28;20049;-65
2021/07/09 03:45:21;;;;;;;7.93;3.85;;;;;;;16.48;100.00;100830.38;4999690;28;20048;-66
2021/07/09 03:48:05;;;;;;;9.68;3.20;;;;;;;16.50;100.00;100838.31;4999388;28;20048;-66
2021/07/09 03:50:49;;;;;;;10.55;3.28;;;;;;;16.46;100.00;100848.56;5014578;28;20513;-65
2021/07/09 03:53:34;;;;;;;7.28;3.53;;;;;;;16.46;100.00;100848.56;5014076;28;20065;-65
2021/07/09 03:56:18;;;;;;;6.28;3.45;;;;;;;16.46;100.00;100845.03;4985789;28;20091;-65
2021/07/09 03:59:02;;;;;;;6.25;3.40;;;;;;;16.42;100.00;100849.91;5014231;28;20112;-65
2021/07/09 04:01:46;;;;;;;9.38;3.80;;;;;;;16.50;100.00;100847.19;4999292;28;20049;-66
2021/07/09 04:04:30;;;;;;;9.00;3.70;;;;;;;16.51;100.00;100851.59;5013881;28;20053;-66
2021/07/09 04:07:14;;;;;;;9.75;3.78;;;;;;;16.45;100.00;100854.94;4985498;28;20060;-65
2021/07/09 04:09:57;;;;;;;6.78;3.53;;;;;;;16.45;100.00;100854.94;5013847;28;20044;-66
2021/07/09 04:12:41;;;;;;;7.57;4.28;;;;;;;16.40;100.00;100854.59;4999123;28;20116;-66
2021/07/09 04:15:25;;;;;;;6.72;4.03;;;;;;;16.41;100.00;100856.31;5013794;28;20060;-64
2021/07/09 04:18:09;;;;;;;8.93;4.57;;;;;;;16.33;100.00;100850.88;4998766;28;20121;-65
2021/07/09 04:20:53;;;;;;;6.75;4.65;;;;;;;16.35;100.00;100854.25;4999105;28;20100;-65
2021/07/09 04:23:37;;;;;;;7.10;4.70;;;;;;;16.35;100.00;100856.94;5013717;28;20149;-65
2021/07/09 04:26:21;;;;;;;6.13;4.78;;;;;;;16.38;100.00;100866.56;4999006;28;20049;-65
2021/07/09 04:29:05;;;;;;;8.93;5.10;;;;;;;16.29;100.00;100862.13;5013785;28;20049;-65
2021/07/09 04:31:49;;;;;;;7.07;5.18;;;;;;;16.28;100.00;100858.59;4999169;28;20080;-65
2021/07/09 04:34:33;;;;;;;7.90;5.22;;;;;;;16.26;100.00;100863.31;5013689;28;20049;-66
2021/07/09 04:37:17;;;;;;;7.43;4.75;;;;;;;16.22;100.00;100858.41;5013678;28;20057;-66
2021/07/09 04:40:01;;;;;;;11.18;5.43;;;;;;;16.21;100.00;100870.19;4998731;28;20411;-65
2021/07/09 04:42:45;;;;;;;10.00;6.15;;;;;;;16.11;100.00;100864.97;5013577;28;20213;-66
2021/07/09 04:45:29;;;;;;;8.15;5.07;;;;;;;15.92;100.00;100876.03;5013839;28;20053;-65
2021/07/09 04:48:13;;;;;;;7.03;5.80;;;;;;;15.87;100.00;100872.13;5013381;28;20065;-65
2021/07/09 04:50:57;;;;;;;8.15;5.75;;;;;;;15.78;100.00;100862.34;5013256;28;20048;-65
2021/07/09 04:53:41;;;;;;;10.00;5.65;;;;;;;15.72;100.00;100863.00;4998367;28;20048;-65
2021/07/09 04:56:24;;;;;;;8.48;5.93;;;;;;;15.64;100.00;100871.88;4971027;28;20049;-65
2021/07/09 04:59:08;;;;;;;12.75;6.45;;;;;;;15.61;100.00;100875.91;4998213;28;20096;-64
2021/07/09 05:01:53;;;;;;;10.13;7.07;;;;;;;15.63;100.00;100879.28;5013136;28;20422;-65
2021/07/09 05:04:37;;;;;;;11.63;6.45;;;;;;;15.60;100.00;100887.66;4998305;28;20061;-65
2021/07/09 05:07:20;;;;;;;9.05;6.32;;;;;;;15.61;100.00;100897.41;4998727;28;20049;-64
2021/07/09 05:10:05;;;;;;;13.38;6.50;;;;;;;15.64;100.00;100889.88;5013070;28;20133;-65
2021/07/09 05:12:49;;;;;;;15.70;6.47;;;;;;;15.65;100.00;100888.88;5013007;28;20099;-66
2021/07/09 05:15:33;;;;;;;14.23;6.68;;;;;;;15.63;100.00;100892.72;5013095;28;20132;-65
2021/07/09 05:18:18;;;;;;;8.20;6.00;;;;;;;15.57;100.00;100893.34;4998393;28;20181;-64
2021/07/09 05:21:02;;;;;;;12.63;7.30;;;;;;;15.60;100.00;100890.34;5013305;28;20048;-65
2021/07/09 05:23:46;;;;;;;13.15;6.43;;;;;;;15.60;100.00;100890.34;5013041;28;20104;-65
2021/07/09 05:26:30;;;;;;;9.27;6.68;;;;;;;15.65;100.00;100899.63;4998418;28;20082;-65
2021/07/09 05:29:14;;;;;;;7.50;5.65;;;;;;;15.67;100.00;100901.13;4984911;28;20045;-65
2021/07/09 05:31:58;;;;;;;;;;;;;;;15.73;100.00;100903.16;4998635;28;20044;-65
2021/07/09 05:34:42;;;;;;;7.00;5.60;;;;;;;15.79;100.00;100899.84;5012851;28;19959;-65
2021/07/09 05:37:26;;;;;;;9.63;6.53;;;;;;;15.87;100.00;100897.16;5013046;28;20049;-65
2021/07/09 05:40:11;;;;;;;11.82;6.10;;;;;;;15.86;100.00;100898.16;4998317;28;20048;-64
2021/07/09 05:42:55;;;;;;;9.40;6.32;;;;;;;15.79;100.00;100899.84;5012962;28;20049;-64
2021/07/09 05:45:39;;;;;;;6.50;5.35;;;;;;;15.88;100.00;100900.72;5012775;28;20079;-65
2021/07/09 05:48:23;;;;;;;11.13;5.70;;;;;;;15.84;100.00;100910.94;4998248;28;20091;-65
2021/07/09 05:51:06;;;;;;;10.82;5.97;;;;;;;15.84;100.00;100904.69;5013047;28;20041;-65
2021/07/09 05:53:50;;;;;;;14.60;6.38;;;;;;;15.91;100.00;100909.28;5012772;28;20068;-66
2021/07/09 05:56:34;;;;;;;8.13;5.95;;;;;;;15.84;100.00;100910.94;5012938;28;20056;-65
2021/07/09 05:59:18;;;;;;;10.43;6.50;;;;;;;15.94;100.00;100911.66;4997816;28;20052;-65
2021/07/09 06:02:02;;;;;;;8.43;6.72;;;;;;;15.97;100.00;100918.56;5014851;28;20072;-66
2021/07/09 06:04:46;;;;;;;13.25;6.10;;;;;;;15.96;100.00;100925.78;4987520;28;20053;-65
2021/07/09 06:07:30;;;;;;;9.65;6.72;;;;;;;16.03;100.00;100915.19;5016358;28;20068;-65
2021/07/09 06:10:14;;;;;;;7.63;5.80;;;;;;;16.07;100.00;100925.47;5001221;28;20572;-65
2021/07/09 06:12:59;;;;;;;10.18;7.20;;;;;;;16.15;100.00;100921.97;5016176;28;20526;-66
2021/07/09 06:15:43;;;;;;;11.23;5.60;;;;;;;16.15;100.00;100920.13;5001410;28;20076;-65
2021/07/09 06:18:27;;;;;;;14.25;6.03;;;;;;;16.10;100.00;100925.16;5001239;28;20053;-65
2021/07/09 06:21:10;;;;;;;9.32;5.78;;;;;;;16.17;100.00;100930.72;5015880;28;20056;-65
2021/07/09 06:23:54;;;;;;;9.35;5.40;;;;;;;16.25;100.00;100926.19;5001256;28;20052;-65
2021/07/09 06:26:41;;;;;;;6.88;5.22;;;;;;;16.27;100.00;100923.34;4987395;28;20052;-65
2021/07/09 06:29:24;;;;;;;8.65;6.03;;;;;;;16.34;100.00;100925.22;5015789;28;20064;-65
2021/07/09 06:32:08;;;;;;;8.20;5.82;;;;;;;16.37;100.00;100927.59;5015900;28;20045;-64
2021/07/09 06:34:52;;;;;;;8.07;5.47;;;;;;;16.39;100.00;100930.13;5000899;28;20074;-64
2021/07/09 06:37:37;;;;;;;;;;;;;;;16.51;100.00;100937.72;5016074;28;20052;-66
2021/07/09 06:40:21;;;;;;;10.07;5.97;;;;;;;16.63;100.00;100939.09;5015479;28;19921;-65
2021/07/09 06:43:05;;;;;;;9.52;5.15;;;;;;;16.62;100.00;100944.63;5000813;28;20107;-64
2021/07/09 06:45:49;;;;;;;6.05;5.43;;;;;;;16.79;100.00;100938.25;5001081;28;20554;-65
2021/07/09 06:48:32;;;;;;;6.55;5.00;;;;;;;16.82;100.00;100943.28;5015634;28;20125;-66
2021/07/09 06:51:16;;;;;;;8.55;5.10;;;;;;;16.86;100.00;100936.56;5000696;28;20103;-65
2021/07/09 06:54:00;;;;;;;9.48;4.93;;;;;;;16.86;100.00;100941.94;5015795;28;20543;-65
2021/07/09 06:56:44;;;;;;;9.82;4.72;;;;;;;16.98;100.00;100944.13;5015423;28;20530;-65
2021/07/09 06:59:28;;;;;;;6.55;4.65;;;;;;;16.98;100.00;100946.81;5000302;28;20572;-65
2021/07/09 07:02:12;;;;;;;11.95;4.35;;;;;;;16.96;100.00;100946.16;5015638;28;20518;-65
2021/07/09 07:04:56;;;;;;;5.65;4.32;;;;;;;17.06;100.00;100946.84;5000181;28;20041;-65
2021/07/09 07:07:40;;;;;;;6.75;4.63;;;;;;;17.10;100.00;100942.78;5000393;28;20045;-65
2021/07/09 07:10:24;;;;;;;6.95;4.45;;;;;;;17.31;100.00;100953.88;5000342;28;20108;-65
2021/07/09 07:13:07;;;;;;;10.65;5.38;;;;;;;17.47;100.00;100947.63;5000072;28;20044;-64
2021/07/09 07:15:52;;;;;;;6.10;4.38;;;;;;;17.75;100.00;100947.06;5015060;28;20139;-65
2021/07/09 07:18:36;;;;;;;7.78;4.72;;;;;;;17.97;100.00;100950.84;5000249;28;20130;-66
2021/07/09 07:21:20;;;;;;;7.22;4.00;;;;;;;18.16;100.00;100943.19;5014922;28;20112;-65
2021/07/09 07:24:04;;;;;;;5.88;4.20;;;;;;;18.24;100.00;100937.72;5014892;28;20099;-65
2021/07/09 07:26:48;;;;;;;8.35;4.18;;;;;;;18.42;100.00;100939.19;4999774;28;20176;-66
2021/07/09 07:29:32;;;;;;;8.45;4.10;;;;;;;18.61;100.00;100945.97;5014783;28;20186;-65
2021/07/09 07:32:16;;;;;;;6.28;3.85;;;;;;;18.78;100.00;100953.78;4986145;28;20053;-66
2021/07/09 07:35:00;;;;;;;6.85;3.83;;;;;;;18.86;100.00;100945.59;5014740;28;20052;-66
2021/07/09 07:37:44;;;;;;;5.15;3.28;;;;;;;18.98;100.00;100948.72;4999435;28;20052;-66
2021/07/09 07:40:27;;;;;;;6.40;4.28;;;;;;;19.07;100.00;100937.66;5014275;28;20048;-66
2021/07/09 07:43:11;;;;;;;7.82;4.00;;;;;;;19.16;98.06;100944.69;4999575;28;20084;-66
2021/07/09 07:45:55;;;;;;;3.95;3.58;;;;;;;19.22;100.00;100940.44;5014456;28;20056;-65
2021/07/09 07:48:39;;;;;;;6.55;3.75;;;;;;;19.45;100.00;100946.63;5014174;28;20414;-65
2021/07/09 07:51:24;;;;;;;10.13;4.15;;;;;;;19.50;96.64;100946.91;4986074;28;20049;-66
2021/07/09 07:54:08;;;;;;;8.43;4.43;;;;;;;19.35;95.29;100946.91;4999167;28;20104;-65
2021/07/09 07:56:52;;;;;;;7.15;4.22;;;;;;;19.52;96.49;100944.84;4985942;28;20458;-65
2021/07/09 07:59:36;;;;;;;;;;;;;;;19.37;97.20;100938.59;5014351;28;20104;-65
2021/07/09 08:02:20;;;;;;;6.50;4.43;;;;;;;19.25;96.24;100943.63;4999048;28;19920;-65
2021/07/09 08:05:04;;;;;;;;;;;;;;;19.23;95.48;100947.50;5000140;28;20064;-66
2021/07/09 08:07:48;;;;;;;7.88;4.13;;;;;;;19.27;94.40;100944.25;4998977;28;19921;-65
2021/07/09 08:10:32;;;;;;;8.40;4.75;;;;;;;19.27;97.79;100951.56;5014055;28;20522;-65
2021/07/09 08:13:16;;;;;;;7.85;4.43;;;;;;;19.42;98.19;100955.97;4985132;28;20104;-66
2021/07/09 08:16:00;;;;;;;9.30;4.55;;;;;;;19.40;97.95;100943.63;5014029;28;20049;-65
2021/07/09 08:18:44;;;;;;;10.05;5.00;;;;;;;19.47;96.41;100949.97;5013643;28;20052;-66
2021/07/09 08:21:28;;;;;;;5.85;4.28;;;;;;;19.55;96.55;100949.88;5013649;28;20465;-66
2021/07/09 08:24:15;;;;;;;9.05;4.40;;;;;;;19.43;92.76;100954.94;4984532;28;20058;-65
2021/07/09 08:27:00;;;;;;;8.50;4.65;;;;;;;19.65;93.55;100942.34;4998718;28;20092;-66
2021/07/09 08:29:44;;;;;;;6.75;4.50;;;;;;;19.86;92.82;100947.84;5013473;28;20454;-66
2021/07/09 08:32:28;;;;;;;;;;;;;;;20.07;92.17;100942.53;4999150;28;20115;-66
2021/07/09 08:35:12;;;;;;;;;;;;;;;20.36;88.12;100937.91;5014173;28;19920;-66
2021/07/09 08:37:56;;;;;;;6.32;4.30;;;;;;;20.46;89.27;100932.19;5013409;28;19924;-66
2021/07/09 08:40:40;;;;;;;7.45;4.07;;;;;;;20.49;87.08;100937.19;5013724;28;20052;-65
2021/07/09 08:43:24;;;;;;;6.03;4.35;;;;;;;20.28;87.97;100934.47;5013564;28;20084;-66
2021/07/09 08:46:08;;;;;;;5.65;3.88;;;;;;;20.69;87.61;100930.97;4998943;28;20533;-66
2021/07/09 08:48:52;;;;;;;7.30;4.63;;;;;;;20.75;83.40;100926.66;4998708;28;20080;-66
2021/07/09 08:51:38;;;;;;;8.60;4.22;;;;;;;20.67;83.86;100937.59;4998764;28;20099;-65
2021/07/09 08:54:22;;;;;;;6.95;4.32;;;;;;;20.90;85.01;100935.56;5014770;28;20139;-66
2021/07/09 08:57:06;;;;;;;;;;;;;;;21.08;82.60;100939.50;4999038;28;20088;-66
2021/07/09 08:59:50;;;;;;;7.50;4.83;;;;;;;21.34;83.36;100928.84;4998739;28;19921;-66
2021/07/09 09:02:44;;;;;;;11.82;5.95;;;;;;;21.40;78.08;100939.75;4998559;28;20351;-66
2021/07/09 09:05:29;;;;;;;10.32;5.88;;;;;;;21.48;79.83;100936.88;4998641;28;20109;-65
2021/07/09 09:08:15;;;;;;;12.32;6.18;;;;;;;21.73;77.28;100943.56;4998610;28;20045;-66
2021/07/09 09:10:59;;;;;;;6.50;4.95;;;;;;;21.90;78.61;100939.47;4998227;28;20069;-67
2021/07/09 09:13:43;;;;;;;8.40;6.47;;;;;;;21.82;76.12;100945.09;5013217;28;20185;-66
2021/07/09 09:16:28;;;;;;;;;;;;;;;21.99;75.95;100937.44;4984860;28;20564;-66
2021/07/09 09:19:18;;;;;;;9.93;6.78;;;;;;;21.93;73.58;100955.38;4998520;28;19983;-66
2021/07/09 09:22:10;;;;;;;11.43;6.82;;;;;;;22.37;73.00;100946.78;4998199;28;20521;-66
2021/07/09 09:24:58;;;;;;;10.00;6.60;;;;;;;22.47;71.50;100942.69;5012922;28;20053;-66
2021/07/09 09:27:42;;;;;;;9.43;6.72;;;;;;;22.53;72.83;100944.56;4984911;28;20056;-66
2021/07/09 09:30:25;;;;;;;11.10;7.22;;;;;;;22.62;71.44;100931.63;5012995;28;20426;-66
2021/07/09 09:33:12;;;;;;;11.38;7.13;;;;;;;22.65;71.63;100942.94;5012874;28;20099;-66
2021/07/09 09:35:56;;;;;;;9.48;6.60;;;;;;;22.94;70.91;100942.53;5013545;28;20099;-66
2021/07/09 09:38:40;;;;;;;11.60;6.90;;;;;;;23.06;70.01;100940.06;5001918;28;20406;-67
2021/07/09 09:41:24;;;;;;;;;;;;;;;23.05;67.59;100936.53;5002078;28;20513;-66
2021/07/09 09:44:12;;;;;;;9.50;7.03;;;;;;;23.32;68.08;100932.75;5001928;28;20294;-67
2021/07/09 09:47:14;;;;;;;9.25;7.93;;;;;;;23.46;66.04;100936.31;5016500;28;20518;-67
2021/07/09 09:49:59;;;;;;;8.63;5.72;;;;;;;23.22;69.20;100939.69;5001619;28;20056;-67
2021/07/09 09:52:46;;;;;;;6.95;6.07;;;;;;;23.30;66.85;100932.13;5016126;28;20557;-67
2021/07/09 09:55:32;;;;;;;7.47;6.38;;;;;;;23.36;66.99;100936.75;5016708;28;20446;-68
2021/07/09 09:58:19;;;;;;;11.73;6.45;;;;;;;23.43;66.52;100921.25;5001850;28;20045;-68
2021/07/09 10:01:04;;;;;;;8.48;6.40;;;;;;;23.75;67.47;100923.06;5002250;28;20045;-68
2021/07/09 10:03:48;;;;;;;9.52;5.28;;;;;;;24.02;69.17;100911.06;5016614;28;20416;-67
2021/07/09 10:06:33;;;;;;;7.57;5.45;;;;;;;24.21;65.92;100904.69;5016526;28;20137;-67
2021/07/09 10:09:18;;;;;;;6.78;5.28;;;;;;;24.49;64.88;100902.47;5001234;28;20504;-67
2021/07/09 10:12:05;;;;;;;8.30;6.03;;;;;;;24.11;64.26;100915.22;5016307;28;20135;-67
2021/07/09 10:14:49;;;;;;;7.65;5.38;;;;;;;23.82;66.84;100909.44;5001485;28;20411;-67
2021/07/09 10:17:34;;;;;;;6.82;6.13;;;;;;;23.39;67.05;100903.66;5001624;28;20064;-67
2021/07/09 10:20:18;;;;;;;6.88;5.88;;;;;;;23.17;66.42;100907.66;5001330;28;20100;-67
2021/07/09 10:23:02;;;;;;;;;;;;;;;22.86;69.58;100912.88;5001358;28;20048;-67
2021/07/09 10:25:47;;;;;;;8.17;5.27;;;;;;;22.82;70.35;100910.75;5001512;28;19952;-67
2021/07/09 10:28:31;;;;;;;9.00;5.80;;;;;;;22.65;73.45;100920.34;5001358;28;20165;-67
2021/07/09 10:31:39;;;;;;;7.53;6.07;;;;;;;21.85;78.95;100941.97;5000882;28;20426;-67
2021/07/09 10:34:34;;;;;;;12.20;6.65;;;;;;;21.23;91.31;100935.69;4987040;28;20053;-66
2021/07/09 10:37:19;;;;;;;14.32;7.88;;;;;;;20.22;100.00;100930.66;5015969;28;20064;-67
2021/07/09 10:40:08;;;;;;;13.50;9.13;;;;;;;19.80;100.00;100940.50;5000632;28;20093;-66
2021/07/09 10:42:52;;;;;;;12.48;9.25;;;;;;;19.60;100.00;100933.97;5000525;28;20092;-66
2021/07/09 10:45:40;;;;;;;14.60;10.32;;;;;;;19.73;100.00;100926.03;5015282;28;20517;-66
2021/07/09 10:48:36;;;;;;;14.60;10.77;;;;;;;19.97;100.00;100928.41;5015356;28;20512;-66
2021/07/09 10:51:20;;;;;;;17.83;11.60;;;;;;;20.29;100.00;100925.31;5015547;28;20561;-67
2021/07/09 10:54:23;;;;;;;;;;;;;;;20.45;100.00;100917.81;5000778;28;20092;-67
2021/07/09 10:57:20;;;;;;;13.02;10.18;;;;;;;20.82;100.00;100916.72;5015409;28;19920;-67
2021/07/09 11:00:20;;;;;;;13.65;9.48;;;;;;;21.21;100.00;100912.50;5015352;28;20518;-67
2021/07/09 11:03:04;;;;;;;10.20;9.07;;;;;;;21.42;100.00;100910.56;5000452;28;20056;-67
2021/07/09 11:05:53;;;;;;;13.32;9.82;;;;;;;22.18;100.00;100901.38;4986955;28;20045;-67
2021/07/09 11:08:40;;;;;;;12.15;8.55;;;;;;;22.98;100.00;100904.91;5015230;28;20073;-67
2021/07/09 11:11:38;;;;;;;8.95;8.05;;;;;;;23.53;97.90;100904.50;5015199;28;20088;-67
2021/07/09 11:14:36;;;;;;;10.48;8.30;;;;;;;23.52;85.99;100903.63;5000134;28;20119;-67
2021/07/09 11:17:22;;;;;;;12.02;8.52;;;;;;;23.55;91.17;100916.00;5000110;28;20470;-67
2021/07/09 11:20:14;;;;;;;8.80;7.90;;;;;;;23.02;85.24;100915.16;4986847;28;20088;-67
2021/07/09 11:23:05;;;;;;;9.38;8.25;;;;;;;22.75;93.73;100916.19;5014802;28;20510;-66
2021/07/09 11:25:49;;;;;;;10.05;8.88;;;;;;;22.52;97.11;100909.47;5000072;28;20100;-67
2021/07/09 11:28:32;;;;;;;13.10;8.23;;;;;;;22.50;99.20;100906.94;5000004;28;20045;-66
2021/07/09 11:31:32;;;;;;;10.07;8.88;;;;;;;22.53;98.92;100903.81;4999703;28;20072;-67
2021/07/09 11:34:18;;;;;;;10.00;8.70;;;;;;;22.82;94.19;100905.31;4999737;28;20053;-65
2021/07/09 11:37:04;;;;;;;9.30;8.30;;;;;;;22.83;88.71;100902.38;4999896;28;20104;-67
2021/07/09 11:39:53;;;;;;;8.05;7.25;;;;;;;24.13;90.53;100902.22;5014532;28;20055;-66
2021/07/09 11:42:38;;;;;;;11.02;6.80;;;;;;;25.69;74.41;100890.97;5014566;28;20056;-67
2021/07/09 11:45:27;;;;;;;7.07;6.25;;;;;;;27.16;63.92;100891.06;4999745;28;20049;-67
2021/07/09 11:48:12;;;;;;;6.97;5.22;;;;;;;27.44;58.66;100888.47;4999430;28;20052;-68
2021/07/09 11:50:56;;;;;;;8.32;5.78;;;;;;;28.19;52.32;100890.13;5014513;28;20526;-68
2021/07/09 11:53:39;;;;;;;;;;;;;;;27.92;56.09;100894.47;4999589;28;20100;-68
2021/07/09 11:56:23;;;;;;;5.20;4.70;;;;;;;26.54;58.74;100889.94;4986129;28;19963;-68
2021/07/09 11:59:18;;;;;;;6.25;5.65;;;;;;;25.73;60.11;100891.34;4998630;28;20053;-67
2021/07/09 12:02:03;;;;;;;6.72;6.03;;;;;;;25.90;62.44;100897.91;5014403;28;20076;-68
2021/07/09 12:04:50;;;;;;;6.95;6.25;;;;;;;26.22;61.67;100896.66;5014164;28;20133;-68
2021/07/09 12:07:36;;;;;;;7.45;6.75;;;;;;;27.28;57.87;100894.63;4999606;28;20060;-69
2021/07/09 12:10:27;;;;;;;7.57;6.78;;;;;;;28.43;54.10;100883.50;5013913;28;20099;-68
2021/07/09 12:13:11;;;;;;;10.60;6.85;;;;;;;28.43;54.10;100883.50;4999390;28;20096;-68
2021/07/09 12:16:03;;;;;;;8.30;6.68;;;;;;;30.14;51.08;100872.25;4999224;28;20052;-68
2021/07/09 12:18:51;;;;;;;8.70;7.03;;;;;;;28.86;50.80;100870.00;4998935;28;20045;-67
2021/07/09 12:21:35;;;;;;;8.27;6.88;;;;;;;28.68;51.56;100870.25;5013965;28;20129;-68
2021/07/09 12:24:21;;;;;;;7.00;6.35;;;;;;;29.57;49.67;100870.09;4985108;28;20053;-69
2021/07/09 12:27:04;;;;;;;7.55;6.07;;;;;;;28.19;54.92;100865.44;4985119;28;20466;-68
2021/07/09 12:29:49;;;;;;;7.38;6.10;;;;;;;27.25;54.52;100875.94;4985307;28;20096;-69
2021/07/09 12:32:41;;;;;;;5.88;5.32;;;;;;;26.78;55.31;100872.53;4998687;28;20137;-69
2021/07/09 12:35:26;;;;;;;6.28;5.68;;;;;;;26.30;56.34;100869.00;4998970;28;20168;-68
2021/07/09 12:38:12;;;;;;;7.53;5.57;;;;;;;24.99;58.25;100872.31;4998849;28;20076;-68
2021/07/09 12:41:07;;;;;;;6.45;5.35;;;;;;;24.28;61.21;100870.91;4999129;28;20061;-68
2021/07/09 12:43:52;;;;;;;6.90;5.68;;;;;;;23.85;66.53;100871.72;5013380;28;20076;-68
2021/07/09 12:46:37;;;;;;;7.13;5.97;;;;;;;23.47;68.09;100878.09;4985145;28;20119;-67